createdAt,value
2023-10-10T00:01:22.825Z,6.88
2023-10-10T00:03:50.721Z,6.95
2023-10-10T00:06:19.676Z,6.95
2023-10-10T00:08:51.538Z,5.90
2023-10-10T00:11:20.328Z,6.50
2023-10-10T00:13:53.706Z,6.65
2023-10-10T00:16:26.553Z,6.38
2023-10-10T00:18:57.562Z,5.90
2023-10-10T00:21:24.887Z,6.32
2023-10-10T00:23:54.778Z,6.47
2023-10-10T00:29:07.389Z,6.28
2023-10-10T00:31:34.444Z,5.97
2023-10-10T00:34:01.190Z,6.20
2023-10-10T00:36:37.512Z,6.68
2023-10-10T00:39:14.076Z,6.18
2023-10-10T00:41:50.479Z,5.93
2023-10-10T00:44:18.678Z,6.65
2023-10-10T00:46:48.886Z,5.88
2023-10-10T00:49:18.083Z,6.90
2023-10-10T00:51:48.643Z,7.18
2023-10-10T00:54:23.098Z,6.15
2023-10-10T00:56:58.023Z,6.55
2023-10-10T00:59:43.944Z,6.55
2023-10-10T01:02:15.816Z,6.68
2023-10-10T01:04:55.159Z,7.18
2023-10-10T01:07:23.204Z,7.75
2023-10-10T01:09:57.049Z,7.75
2023-10-10T01:12:25.852Z,7.20
2023-10-10T01:14:57.814Z,8.15
2023-10-10T01:17:31.373Z,7.85
2023-10-10T01:20:26.092Z,7.15
2023-10-10T01:22:58.126Z,7.70
2023-10-10T01:25:34.250Z,7.53
2023-10-10T01:28:21.069Z,7.85
2023-10-10T01:30:54.594Z,7.72
2023-10-10T01:33:38.461Z,7.95
2023-10-10T01:36:22.025Z,7.20
2023-10-10T01:39:08.240Z,8.60
2023-10-10T01:41:40.240Z,8.85
2023-10-10T01:44:14.816Z,9.38
2023-10-10T01:46:42.418Z,8.98
2023-10-10T01:49:15.003Z,9.87
2023-10-10T01:51:44.579Z,10.23
2023-10-10T01:54:20.246Z,10.00
2023-10-10T01:56:48.169Z,8.95
2023-10-10T01:59:18.786Z,10.60
2023-10-10T02:01:46.304Z,10.00
2023-10-10T02:04:13.883Z,10.65
2023-10-10T02:06:41.837Z,11.23
2023-10-10T02:09:21.387Z,10.18
2023-10-10T02:11:51.579Z,12.45
2023-10-10T02:14:20.376Z,11.25
2023-10-10T02:16:50.404Z,11.20
2023-10-10T02:19:25.106Z,11.55
2023-10-10T02:22:04.531Z,10.93
2023-10-10T02:24:31.652Z,11.63
2023-10-10T02:26:58.605Z,11.95
2023-10-10T02:29:25.467Z,11.75
2023-10-10T02:32:14.387Z,15.13
2023-10-10T02:34:57.324Z,17.77
2023-10-10T02:37:25.175Z,17.42
2023-10-10T02:40:08.887Z,16.30
2023-10-10T02:42:35.572Z,17.95
2023-10-10T02:45:03.441Z,16.02
2023-10-10T02:47:34.017Z,16.90
2023-10-10T02:50:11.489Z,17.63
2023-10-10T02:52:40.319Z,18.63
2023-10-10T02:57:42.824Z,21.08
2023-10-10T03:00:29.255Z,22.58
2023-10-10T03:02:59.866Z,25.70
2023-10-10T03:05:47.916Z,33.67
2023-10-10T03:08:16.049Z,37.55
2023-10-10T03:10:46.735Z,36.63
2023-10-10T03:13:28.932Z,40.65
2023-10-10T03:15:57.421Z,39.97
2023-10-10T03:18:31.627Z,38.60
2023-10-10T03:21:28.425Z,39.40
2023-10-10T03:23:57.182Z,41.70
2023-10-10T03:26:53.472Z,40.63
2023-10-10T03:29:50.201Z,41.22
2023-10-10T03:32:26.566Z,40.92
2023-10-10T03:34:58.852Z,41.63
2023-10-10T03:37:31.547Z,43.47
2023-10-10T03:40:10.491Z,41.10
2023-10-10T03:42:55.701Z,39.60
2023-10-10T03:45:41.631Z,39.72
2023-10-10T03:48:27.648Z,40.63
2023-10-10T03:51:13.621Z,40.72
2023-10-10T03:53:59.671Z,40.47
2023-10-10T03:56:45.627Z,40.05
2023-10-10T03:59:31.788Z,39.97
2023-10-10T04:02:17.542Z,42.05
2023-10-10T04:05:16.038Z,43.50
2023-10-10T04:08:09.870Z,42.83
2023-10-10T04:10:55.739Z,43.08
2023-10-10T04:13:41.762Z,45.00
2023-10-10T04:16:28.302Z,45.20
2023-10-10T04:19:14.520Z,45.10
2023-10-10T04:22:00.565Z,46.40
2023-10-10T04:24:46.414Z,42.25
2023-10-10T04:27:32.523Z,43.47
2023-10-10T04:30:18.319Z,41.60
2023-10-10T04:33:04.394Z,41.05
2023-10-10T04:35:50.362Z,42.00
2023-10-10T04:38:36.393Z,41.13
2023-10-10T04:41:22.568Z,42.60
2023-10-10T04:44:08.570Z,43.92
2023-10-10T04:46:54.588Z,40.97
2023-10-10T04:49:40.579Z,41.08
2023-10-10T04:52:26.559Z,43.00
2023-10-10T04:55:12.522Z,42.72
2023-10-10T04:57:58.436Z,41.60
2023-10-10T05:00:44.397Z,41.67
2023-10-10T05:03:30.614Z,41.33
2023-10-10T05:06:20.582Z,42.25
2023-10-10T05:09:07.032Z,42.88
2023-10-10T05:11:52.783Z,45.15
2023-10-10T05:14:39.024Z,43.00
2023-10-10T05:17:25.029Z,39.80
2023-10-10T05:20:11.203Z,33.13
2023-10-10T05:23:11.040Z,36.67
2023-10-10T05:25:38.679Z,39.30
2023-10-10T05:28:05.637Z,39.87
2023-10-10T05:30:43.976Z,41.15
2023-10-10T05:33:11.961Z,42.00
2023-10-10T05:35:41.849Z,41.03
2023-10-10T05:38:09.908Z,42.88
2023-10-10T05:40:39.568Z,42.58
2023-10-10T05:43:17.137Z,42.70
2023-10-10T05:45:45.242Z,42.33
2023-10-10T05:48:15.768Z,42.90
2023-10-10T05:50:42.710Z,41.17
2023-10-10T05:53:09.484Z,40.22
2023-10-10T05:55:39.670Z,38.45
2023-10-10T05:58:07.014Z,41.55
2023-10-10T06:00:42.764Z,43.05
2023-10-10T06:03:09.675Z,40.65
2023-10-10T06:05:36.965Z,41.25
2023-10-10T06:08:07.281Z,42.60
2023-10-10T06:10:34.429Z,40.22
2023-10-10T06:13:08.345Z,39.08
2023-10-10T06:15:36.525Z,35.72
2023-10-10T06:18:19.462Z,41.10
2023-10-10T06:21:06.647Z,38.58
2023-10-10T06:23:36.519Z,41.63
2023-10-10T06:26:05.366Z,39.10
2023-10-10T06:28:46.115Z,37.15
2023-10-10T06:31:20.918Z,37.97
2023-10-10T06:33:51.309Z,33.35
2023-10-10T06:36:22.843Z,37.13
2023-10-10T06:39:00.699Z,36.35
2023-10-10T06:41:29.118Z,36.83
2023-10-10T06:43:58.600Z,40.28
2023-10-10T06:46:25.439Z,42.00
2023-10-10T06:48:52.399Z,41.90
2023-10-10T06:51:23.348Z,42.38
2023-10-10T06:53:55.766Z,43.55
2023-10-10T06:56:43.122Z,44.45
2023-10-10T06:59:17.837Z,44.95
2023-10-10T07:01:46.697Z,44.45
2023-10-10T07:04:17.691Z,45.75
2023-10-10T07:06:52.723Z,46.28
2023-10-10T07:09:29.026Z,43.03
2023-10-10T07:12:20.189Z,43.22
2023-10-10T07:14:48.088Z,40.10
2023-10-10T07:17:15.697Z,42.78
2023-10-10T07:20:16.202Z,41.08
2023-10-10T07:22:44.485Z,41.85
2023-10-10T07:25:19.384Z,41.83
2023-10-10T07:27:46.589Z,41.92
2023-10-10T07:30:13.360Z,42.03
2023-10-10T07:32:43.950Z,42.50
2023-10-10T07:35:16.026Z,43.65
2023-10-10T07:37:44.812Z,43.50
2023-10-10T07:40:15.867Z,42.45
2023-10-10T07:42:42.544Z,42.22
2023-10-10T07:45:16.439Z,43.13
2023-10-10T07:47:59.147Z,42.85
2023-10-10T07:50:36.282Z,40.63
2023-10-10T07:53:05.217Z,40.78
2023-10-10T07:55:52.291Z,43.47
2023-10-10T07:58:21.212Z,41.17
2023-10-10T08:00:47.995Z,42.35
2023-10-10T08:03:20.599Z,42.38
2023-10-10T08:05:52.197Z,41.17
2023-10-10T08:08:19.140Z,42.65
2023-10-10T08:10:47.447Z,41.08
2023-10-10T08:13:15.388Z,42.03
2023-10-10T08:15:51.616Z,41.38
2023-10-10T08:18:37.897Z,39.47
2023-10-10T08:21:04.935Z,40.58
2023-10-10T08:23:32.133Z,40.03
2023-10-10T08:25:59.128Z,39.65
2023-10-10T08:28:25.928Z,40.65
2023-10-10T08:30:54.018Z,40.40
2023-10-10T08:33:21.137Z,40.00
2023-10-10T08:35:50.976Z,40.35
2023-10-10T08:38:21.952Z,40.72
2023-10-10T08:41:02.437Z,38.88
2023-10-10T08:43:30.394Z,40.72
2023-10-10T08:45:58.226Z,40.25
2023-10-10T08:48:27.924Z,41.67
2023-10-10T08:51:04.827Z,39.67
2023-10-10T08:53:39.665Z,38.67
2023-10-10T08:56:08.102Z,37.38
2023-10-10T08:58:37.162Z,37.20
2023-10-10T09:01:09.594Z,39.10
2023-10-10T09:03:37.188Z,39.65
2023-10-10T09:06:20.257Z,38.03
2023-10-10T09:08:51.413Z,36.90
2023-10-10T09:11:21.417Z,37.05
2023-10-10T09:13:53.040Z,39.08
2023-10-10T09:16:42.660Z,37.70
2023-10-10T09:19:09.748Z,37.45
2023-10-10T09:21:52.356Z,36.63
2023-10-10T09:24:30.215Z,35.80
2023-10-10T09:26:57.958Z,36.17
2023-10-10T09:29:35.256Z,32.75
2023-10-10T09:32:02.902Z,34.63
2023-10-10T09:34:42.131Z,34.55
2023-10-10T09:37:12.217Z,32.70
2023-10-10T09:39:41.242Z,31.98
2023-10-10T09:42:10.219Z,31.77
2023-10-10T09:45:02.061Z,31.00
2023-10-10T09:47:44.677Z,28.70
2023-10-10T09:50:24.053Z,31.33
2023-10-10T09:52:54.766Z,30.17
2023-10-10T09:55:26.014Z,30.58
2023-10-10T09:58:03.301Z,29.98
2023-10-10T10:00:38.540Z,28.15
2023-10-10T10:03:29.511Z,28.00
2023-10-10T10:06:07.559Z,27.55
2023-10-10T10:08:45.900Z,27.03
2023-10-10T10:11:29.545Z,25.40
2023-10-10T10:14:17.048Z,27.52
2023-10-10T10:16:52.389Z,26.45
2023-10-10T10:19:21.807Z,26.83
2023-10-10T10:21:58.199Z,25.83
2023-10-10T10:24:32.256Z,25.73
2023-10-10T10:27:40.595Z,25.35
2023-10-10T10:30:20.675Z,25.80
2023-10-10T10:32:49.118Z,25.35
2023-10-10T10:37:56.899Z,26.15
2023-10-10T10:40:43.763Z,25.90
2023-10-10T10:43:16.422Z,25.38
2023-10-10T10:45:52.457Z,24.30
2023-10-10T10:48:35.432Z,22.70
2023-10-10T10:51:27.994Z,22.35
2023-10-10T10:54:03.419Z,23.17
2023-10-10T10:56:31.671Z,22.98
2023-10-10T10:59:15.075Z,23.25
2023-10-10T11:01:54.051Z,23.27
2023-10-10T11:04:34.581Z,21.73
2023-10-10T11:07:08.665Z,23.13
2023-10-10T11:09:38.381Z,20.80
2023-10-10T11:12:09.901Z,20.33
2023-10-10T11:14:47.861Z,20.58
2023-10-10T11:17:19.224Z,18.90
2023-10-10T11:19:48.134Z,18.90
2023-10-10T11:25:06.501Z,18.58
2023-10-10T11:30:09.548Z,17.65
2023-10-10T11:32:47.674Z,17.95
2023-10-10T11:35:24.569Z,15.07
2023-10-10T11:38:00.663Z,15.20
2023-10-10T11:40:31.470Z,17.00
2023-10-10T11:42:59.634Z,14.20
2023-10-10T11:45:27.639Z,16.40
2023-10-10T11:47:59.320Z,16.48
2023-10-10T11:50:30.498Z,15.52
2023-10-10T11:52:57.845Z,16.20
2023-10-10T11:55:25.304Z,18.45
2023-10-10T11:57:58.762Z,16.75
2023-10-10T12:00:45.040Z,17.83
2023-10-10T12:03:13.062Z,16.15
2023-10-10T12:05:52.885Z,15.45
2023-10-10T12:08:24.332Z,16.60
2023-10-10T12:11:05.651Z,17.00
2023-10-10T12:13:33.426Z,18.02
2023-10-10T12:16:01.673Z,17.33
2023-10-10T12:18:32.945Z,16.13
2023-10-10T12:21:02.298Z,17.83
2023-10-10T12:23:31.366Z,15.07
2023-10-10T12:26:00.426Z,16.02
2023-10-10T12:28:27.910Z,16.85
2023-10-10T12:30:57.953Z,15.60
2023-10-10T12:33:25.763Z,16.27
2023-10-10T12:35:56.082Z,16.05
2023-10-10T12:38:25.867Z,16.92
2023-10-10T12:40:53.947Z,17.05
2023-10-10T12:43:22.101Z,15.55
2023-10-10T12:45:52.254Z,18.23
2023-10-10T12:48:23.455Z,15.35
2023-10-10T12:50:51.655Z,16.08
2023-10-10T12:53:22.710Z,15.90
2023-10-10T12:55:50.678Z,16.20
2023-10-10T12:58:21.178Z,17.08
2023-10-10T13:00:52.316Z,15.88
2023-10-10T13:03:20.011Z,14.48
2023-10-10T13:05:53.479Z,13.88
2023-10-10T13:08:24.115Z,12.30
2023-10-10T13:11:01.893Z,15.27
2023-10-10T13:13:32.655Z,12.38
2023-10-10T13:16:23.444Z,14.68
2023-10-10T13:18:54.395Z,13.13
2023-10-10T13:21:21.622Z,14.00
2023-10-10T13:23:49.764Z,14.35
2023-10-10T13:26:24.449Z,15.43
2023-10-10T13:28:51.648Z,15.43
2023-10-10T13:31:19.639Z,14.63
2023-10-10T13:33:47.241Z,14.30
2023-10-10T13:36:18.062Z,15.02
2023-10-10T13:38:49.988Z,13.57
2023-10-10T13:41:19.858Z,13.18
2023-10-10T13:43:50.623Z,12.55
2023-10-10T13:46:19.431Z,12.77
2023-10-10T13:48:47.483Z,14.50
2023-10-10T13:51:17.629Z,14.07
2023-10-10T13:53:46.164Z,14.07
2023-10-10T13:56:17.833Z,13.80
2023-10-10T13:58:48.709Z,11.48
2023-10-10T14:01:16.675Z,11.30
2023-10-10T14:03:47.045Z,11.18
2023-10-10T14:06:15.594Z,12.70
2023-10-10T14:11:14.415Z,11.27
2023-10-10T14:13:41.532Z,10.93
2023-10-10T14:16:08.851Z,11.00
2023-10-10T14:18:48.422Z,11.48
2023-10-10T14:21:17.654Z,13.98
2023-10-10T14:23:46.784Z,12.68
2023-10-10T14:26:14.668Z,14.02
2023-10-10T14:28:42.723Z,12.10
2023-10-10T14:31:13.746Z,11.57
2023-10-10T14:33:41.785Z,13.13
2023-10-10T14:36:12.688Z,13.23
2023-10-10T14:38:46.218Z,12.00
2023-10-10T14:41:17.432Z,12.55
2023-10-10T14:44:01.555Z,12.25
2023-10-10T14:46:33.042Z,11.25
2023-10-10T14:49:07.610Z,12.32
2023-10-10T14:51:37.323Z,11.48
2023-10-10T14:54:08.142Z,10.50
2023-10-10T14:56:37.050Z,10.60
2023-10-10T14:59:05.832Z,9.55
2023-10-10T15:01:35.598Z,9.27
2023-10-10T15:04:04.113Z,8.43
2023-10-10T15:06:31.394Z,8.07
2023-10-10T15:08:59.364Z,7.57
2023-10-10T15:11:30.053Z,8.05
2023-10-10T15:13:57.706Z,8.23
2023-10-10T15:16:26.880Z,7.65
2023-10-10T15:18:54.329Z,8.00
2023-10-10T15:21:21.918Z,8.52
2023-10-10T15:23:49.242Z,8.15
2023-10-10T15:26:20.721Z,7.87
2023-10-10T15:28:48.389Z,8.18
2023-10-10T15:31:16.953Z,8.40
2023-10-10T15:33:48.358Z,8.90
2023-10-10T15:36:17.780Z,7.63
2023-10-10T15:38:45.077Z,8.40
2023-10-10T15:41:20.885Z,8.32
2023-10-10T15:43:48.459Z,7.78
2023-10-10T15:46:16.342Z,7.70
2023-10-10T15:48:44.290Z,7.57
2023-10-10T15:51:15.886Z,8.18
2023-10-10T15:53:46.839Z,8.00
2023-10-10T15:56:18.460Z,8.00
2023-10-10T15:58:51.043Z,6.88
2023-10-10T16:01:28.999Z,6.68
2023-10-10T16:03:56.478Z,6.82
2023-10-10T16:06:24.154Z,6.33
2023-10-10T16:08:52.465Z,7.30
2023-10-10T16:11:23.306Z,6.30
2023-10-10T16:13:50.593Z,5.93
2023-10-10T16:16:19.465Z,6.13
2023-10-10T16:18:49.853Z,5.68
2023-10-10T16:21:17.069Z,5.82
2023-10-10T16:23:46.155Z,6.30
2023-10-10T16:26:15.853Z,7.07
2023-10-10T16:28:43.412Z,6.45
2023-10-10T16:31:12.180Z,8.93
2023-10-10T16:33:40.109Z,8.70
2023-10-10T16:36:07.706Z,6.60
2023-10-10T16:38:36.844Z,6.90
2023-10-10T16:41:09.712Z,7.32
2023-10-10T16:43:53.992Z,7.38
2023-10-10T16:46:26.705Z,6.68
2023-10-10T16:48:53.778Z,6.88
2023-10-10T16:51:22.013Z,6.35
2023-10-10T16:53:54.129Z,7.30
2023-10-10T16:56:24.313Z,6.45
2023-10-10T16:58:51.671Z,6.57
2023-10-10T17:01:21.947Z,6.20
2023-10-10T17:03:51.323Z,6.82
2023-10-10T17:06:23.513Z,6.82
2023-10-10T17:08:54.216Z,7.00
2023-10-10T17:11:24.433Z,7.18
2023-10-10T17:13:54.008Z,6.80
2023-10-10T17:16:29.444Z,6.22
2023-10-10T17:19:06.573Z,6.32
2023-10-10T17:21:43.783Z,5.95
2023-10-10T17:24:10.764Z,6.50
2023-10-10T17:26:38.121Z,5.65
2023-10-10T17:29:05.288Z,6.73
2023-10-10T17:31:32.480Z,6.32
2023-10-10T17:34:02.639Z,6.97
2023-10-10T17:36:30.052Z,6.30
2023-10-10T17:38:57.368Z,6.78
2023-10-10T17:41:25.067Z,6.18
2023-10-10T17:43:52.013Z,6.55
2023-10-10T17:46:23.038Z,6.75
2023-10-10T17:48:56.628Z,6.93
2023-10-10T17:51:25.004Z,6.68
2023-10-10T17:53:53.158Z,6.50
2023-10-10T17:56:24.358Z,6.55
2023-10-10T17:58:51.852Z,6.60
2023-10-10T18:01:22.490Z,6.38
2023-10-10T18:03:57.396Z,7.15
2023-10-10T18:06:25.554Z,6.25
2023-10-10T18:08:56.935Z,6.80
2023-10-10T18:11:27.269Z,6.60
2023-10-10T18:13:54.482Z,6.35
2023-10-10T18:16:24.264Z,6.70
2023-10-10T18:18:53.554Z,7.28
2023-10-10T18:21:21.391Z,6.55
2023-10-10T18:23:48.530Z,6.20
2023-10-10T18:26:17.465Z,6.22
2023-10-10T18:28:44.903Z,6.85
2023-10-10T18:31:15.411Z,6.22
2023-10-10T18:33:43.456Z,6.35
2023-10-10T18:36:11.524Z,6.75
2023-10-10T18:38:41.166Z,6.30
2023-10-10T18:41:09.093Z,5.43
2023-10-10T18:43:36.159Z,5.70
2023-10-10T18:46:06.270Z,5.47
2023-10-10T18:48:38.230Z,6.45
2023-10-10T18:51:10.857Z,5.43
2023-10-10T18:53:37.689Z,5.43
2023-10-10T18:56:06.738Z,5.97
2023-10-10T18:58:33.619Z,5.30
2023-10-10T19:01:02.309Z,6.15
2023-10-10T19:03:29.346Z,5.95
2023-10-10T19:05:57.340Z,5.93
2023-10-10T19:08:24.151Z,5.90
2023-10-10T19:10:52.575Z,5.10
2023-10-10T19:15:49.887Z,5.07
2023-10-10T19:18:19.968Z,5.55
2023-10-10T19:20:47.689Z,5.15
2023-10-10T19:23:15.896Z,5.85
2023-10-10T19:28:16.876Z,4.40
2023-10-10T19:30:43.882Z,4.80
2023-10-10T19:33:12.281Z,5.00
2023-10-10T19:38:12.506Z,4.57
2023-10-10T19:40:44.155Z,5.55
2023-10-10T19:43:14.033Z,4.50
2023-10-10T19:45:41.335Z,4.88
2023-10-10T19:48:08.674Z,5.35
2023-10-10T19:50:43.911Z,4.88
2023-10-10T19:53:12.308Z,4.50
2023-10-10T19:55:45.784Z,5.05
2023-10-10T19:58:13.737Z,4.70
2023-10-10T20:00:44.158Z,5.00
2023-10-10T20:03:15.097Z,4.35
2023-10-10T20:05:42.866Z,4.20
2023-10-10T20:08:14.340Z,4.10
2023-10-10T20:10:41.934Z,4.47
2023-10-10T20:13:09.150Z,3.93
2023-10-10T20:15:43.525Z,4.20
2023-10-10T20:18:12.162Z,4.45
2023-10-10T20:20:41.188Z,4.07
2023-10-10T20:23:10.347Z,3.53
2023-10-10T20:25:40.970Z,3.95
2023-10-10T20:28:08.900Z,3.70
2023-10-10T20:30:36.255Z,3.85
2023-10-10T20:33:05.583Z,4.05
2023-10-10T20:35:33.660Z,4.30
2023-10-10T20:38:02.343Z,4.20
2023-10-10T20:40:32.772Z,4.03
2023-10-10T20:43:06.903Z,4.03
2023-10-10T20:45:37.354Z,3.70
2023-10-10T20:48:09.697Z,3.70
2023-10-10T20:50:42.525Z,4.22
2023-10-10T20:53:09.925Z,4.35
2023-10-10T20:55:37.145Z,4.50
2023-10-10T20:58:05.074Z,4.40
2023-10-10T21:00:31.955Z,4.10
2023-10-10T21:03:07.212Z,4.18
2023-10-10T21:05:35.621Z,3.85
2023-10-10T21:08:05.003Z,3.65
2023-10-10T21:10:31.815Z,4.18
2023-10-10T21:12:59.053Z,4.03
2023-10-10T21:15:26.060Z,3.95
2023-10-10T21:17:54.706Z,3.80
2023-10-10T21:20:28.576Z,4.20
2023-10-10T21:22:58.530Z,3.90
2023-10-10T21:25:26.157Z,4.03
2023-10-10T21:27:56.396Z,4.17
2023-10-10T21:30:25.285Z,3.88
2023-10-10T21:32:52.391Z,4.95
2023-10-10T21:35:23.115Z,4.20
2023-10-10T21:37:50.160Z,4.07
2023-10-10T21:40:21.412Z,3.75
2023-10-10T21:42:50.063Z,4.50
2023-10-10T21:45:18.154Z,4.55
2023-10-10T21:47:52.163Z,4.97
2023-10-10T21:50:19.979Z,5.07
2023-10-10T21:52:48.535Z,5.13
2023-10-10T21:55:18.005Z,4.20
2023-10-10T21:57:56.661Z,5.10
2023-10-10T22:00:31.181Z,5.18
2023-10-10T22:03:01.967Z,5.53
2023-10-10T22:05:31.600Z,6.15
2023-10-10T22:07:59.088Z,5.75
2023-10-10T22:10:26.027Z,7.10
2023-10-10T22:12:59.066Z,5.75
2023-10-10T22:15:25.886Z,5.88
2023-10-10T22:17:57.288Z,7.68
2023-10-10T22:20:25.823Z,6.10
2023-10-10T22:22:54.852Z,7.47
2023-10-10T22:25:24.587Z,7.32
2023-10-10T22:27:53.100Z,7.65
2023-10-10T22:30:25.857Z,8.43
2023-10-10T22:32:54.637Z,7.78
2023-10-10T22:35:22.836Z,8.15
2023-10-10T22:37:51.641Z,8.00
2023-10-10T22:40:18.734Z,8.10
2023-10-10T22:42:45.571Z,9.02
2023-10-10T22:45:19.099Z,8.88
2023-10-10T22:47:55.069Z,8.98
2023-10-10T22:50:22.503Z,9.25
2023-10-10T22:52:53.766Z,10.02
2023-10-10T22:55:21.839Z,8.85
2023-10-10T22:57:51.891Z,10.13
2023-10-10T23:00:30.086Z,9.77
2023-10-10T23:02:59.564Z,8.65
2023-10-10T23:05:28.571Z,9.65
2023-10-10T23:07:56.536Z,9.85
2023-10-10T23:10:23.490Z,9.18
2023-10-10T23:12:51.484Z,9.27
2023-10-10T23:15:27.350Z,9.00
2023-10-10T23:17:59.651Z,9.80
2023-10-10T23:20:27.910Z,9.88
2023-10-10T23:22:55.765Z,9.98
2023-10-10T23:25:23.002Z,9.82
2023-10-10T23:27:52.004Z,9.88
2023-10-10T23:30:20.190Z,9.65
2023-10-10T23:32:47.584Z,9.95
2023-10-10T23:35:14.624Z,10.18
2023-10-10T23:37:46.047Z,10.52
2023-10-10T23:40:16.923Z,9.88
2023-10-10T23:42:45.103Z,10.77
2023-10-10T23:45:23.399Z,10.07
2023-10-10T23:47:56.225Z,10.20
2023-10-10T23:50:24.827Z,10.50
2023-10-10T23:52:53.173Z,10.35
2023-10-10T23:55:21.315Z,10.85
2023-10-10T23:57:49.520Z,9.38
